sensor_id;sensor_type;location;lat;lon;timestamp;P1;durP1;ratioP1;P2;durP2;ratioP2
44480;SDS011;30184;42.018;23.670;2023-12-20T00:00:25;11.00;;;6.55;;
44480;SDS011;30184;42.018;23.670;2023-12-20T00:02:54;10.27;;;6.25;;
44480;SDS011;30184;42.018;23.670;2023-12-20T00:05:23;14.57;;;7.20;;
44480;SDS011;30184;42.018;23.670;2023-12-20T00:07:54;15.95;;;7.57;;
44480;SDS011;30184;42.018;23.670;2023-12-20T00:10:23;16.83;;;8.25;;
44480;SDS011;30184;42.018;23.670;2023-12-20T00:12:52;16.02;;;7.90;;
44480;SDS011;30184;42.018;23.670;2023-12-20T00:15:21;21.15;;;8.43;;
44480;SDS011;30184;42.018;23.670;2023-12-20T00:17:50;12.98;;;7.55;;
44480;SDS011;30184;42.018;23.670;2023-12-20T00:20:19;14.23;;;5.47;;
44480;SDS011;30184;42.018;23.670;2023-12-20T00:22:48;10.75;;;5.40;;
44480;SDS011;30184;42.018;23.670;2023-12-20T00:25:19;10.32;;;5.57;;
44480;SDS011;30184;42.018;23.670;2023-12-20T00:27:48;11.55;;;6.43;;
44480;SDS011;30184;42.018;23.670;2023-12-20T00:30:17;7.80;;;5.75;;
44480;SDS011;30184;42.018;23.670;2023-12-20T00:32:47;13.70;;;6.82;;
44480;SDS011;30184;42.018;23.670;2023-12-20T00:35:16;12.40;;;6.90;;
44480;SDS011;30184;42.018;23.670;2023-12-20T00:37:45;12.77;;;6.50;;
44480;SDS011;30184;42.018;23.670;2023-12-20T00:40:14;10.40;;;5.95;;
44480;SDS011;30184;42.018;23.670;2023-12-20T00:42:45;12.10;;;6.38;;
44480;SDS011;30184;42.018;23.670;2023-12-20T00:45:14;13.38;;;7.22;;
44480;SDS011;30184;42.018;23.670;2023-12-20T00:47:43;30.90;;;13.40;;
44480;SDS011;30184;42.018;23.670;2023-12-20T00:50:13;21.38;;;8.30;;
44480;SDS011;30184;42.018;23.670;2023-12-20T00:52:42;17.00;;;7.60;;
44480;SDS011;30184;42.018;23.670;2023-12-20T00:55:11;18.75;;;9.00;;
44480;SDS011;30184;42.018;23.670;2023-12-20T00:57:40;29.55;;;11.77;;
44480;SDS011;30184;42.018;23.670;2023-12-20T01:00:11;28.98;;;12.73;;
44480;SDS011;30184;42.018;23.670;2023-12-20T01:02:41;23.33;;;10.50;;
44480;SDS011;30184;42.018;23.670;2023-12-20T01:05:10;21.48;;;11.00;;
44480;SDS011;30184;42.018;23.670;2023-12-20T01:07:40;21.98;;;13.20;;
44480;SDS011;30184;42.018;23.670;2023-12-20T01:10:09;31.27;;;14.27;;
44480;SDS011;30184;42.018;23.670;2023-12-20T01:12:38;42.00;;;15.85;;
44480;SDS011;30184;42.018;23.670;2023-12-20T01:15:07;35.72;;;14.27;;
44480;SDS011;30184;42.018;23.670;2023-12-20T01:17:38;26.17;;;12.70;;
44480;SDS011;30184;42.018;23.670;2023-12-20T01:20:08;22.65;;;12.32;;
44480;SDS011;30184;42.018;23.670;2023-12-20T01:22:37;21.80;;;10.85;;
44480;SDS011;30184;42.018;23.670;2023-12-20T01:25:07;24.00;;;9.63;;
44480;SDS011;30184;42.018;23.670;2023-12-20T01:27:36;21.55;;;10.98;;
44480;SDS011;30184;42.018;23.670;2023-12-20T01:30:06;23.95;;;11.95;;
44480;SDS011;30184;42.018;23.670;2023-12-20T01:32:36;21.10;;;10.55;;
44480;SDS011;30184;42.018;23.670;2023-12-20T01:35:07;33.88;;;11.65;;
44480;SDS011;30184;42.018;23.670;2023-12-20T01:37:36;27.13;;;11.50;;
44480;SDS011;30184;42.018;23.670;2023-12-20T01:40:05;23.95;;;11.45;;
44480;SDS011;30184;42.018;23.670;2023-12-20T01:42:35;24.83;;;10.98;;
44480;SDS011;30184;42.018;23.670;2023-12-20T01:45:05;17.92;;;9.98;;
44480;SDS011;30184;42.018;23.670;2023-12-20T01:47:35;25.65;;;12.10;;
44480;SDS011;30184;42.018;23.670;2023-12-20T01:50:07;32.25;;;12.55;;
44480;SDS011;30184;42.018;23.670;2023-12-20T01:52:36;21.70;;;12.10;;
44480;SDS011;30184;42.018;23.670;2023-12-20T01:55:06;27.20;;;11.63;;
44480;SDS011;30184;42.018;23.670;2023-12-20T01:57:40;23.05;;;12.05;;
44480;SDS011;30184;42.018;23.670;2023-12-20T02:00:11;25.63;;;8.98;;
44480;SDS011;30184;42.018;23.670;2023-12-20T02:02:41;18.15;;;7.70;;
44480;SDS011;30184;42.018;23.670;2023-12-20T02:05:15;23.90;;;10.10;;
44480;SDS011;30184;42.018;23.670;2023-12-20T02:07:45;23.08;;;8.75;;
44480;SDS011;30184;42.018;23.670;2023-12-20T02:10:14;23.75;;;10.45;;
44480;SDS011;30184;42.018;23.670;2023-12-20T02:12:44;26.63;;;13.30;;
44480;SDS011;30184;42.018;23.670;2023-12-20T02:15:13;33.80;;;13.15;;
44480;SDS011;30184;42.018;23.670;2023-12-20T02:17:43;27.08;;;13.18;;
44480;SDS011;30184;42.018;23.670;2023-12-20T02:20:15;21.17;;;9.52;;
44480;SDS011;30184;42.018;23.670;2023-12-20T02:22:46;11.45;;;6.95;;
44480;SDS011;30184;42.018;23.670;2023-12-20T02:25:15;15.57;;;6.93;;
44480;SDS011;30184;42.018;23.670;2023-12-20T02:27:44;23.50;;;8.38;;
44480;SDS011;30184;42.018;23.670;2023-12-20T02:30:14;41.70;;;17.98;;
44480;SDS011;30184;42.018;23.670;2023-12-20T02:32:43;39.30;;;17.10;;
44480;SDS011;30184;42.018;23.670;2023-12-20T02:35:12;29.45;;;12.52;;
44480;SDS011;30184;42.018;23.670;2023-12-20T02:37:41;29.10;;;12.27;;
44480;SDS011;30184;42.018;23.670;2023-12-20T02:40:12;36.28;;;13.15;;
44480;SDS011;30184;42.018;23.670;2023-12-20T02:42:41;23.85;;;10.75;;
44480;SDS011;30184;42.018;23.670;2023-12-20T02:45:10;26.10;;;11.75;;
44480;SDS011;30184;42.018;23.670;2023-12-20T02:47:39;31.25;;;12.15;;
44480;SDS011;30184;42.018;23.670;2023-12-20T02:50:08;26.00;;;12.35;;
44480;SDS011;30184;42.018;23.670;2023-12-20T02:52:37;21.35;;;12.43;;
44480;SDS011;30184;42.018;23.670;2023-12-20T02:55:06;19.77;;;9.45;;
44480;SDS011;30184;42.018;23.670;2023-12-20T02:57:37;35.58;;;9.13;;
44480;SDS011;30184;42.018;23.670;2023-12-20T03:00:09;15.80;;;7.70;;
44480;SDS011;30184;42.018;23.670;2023-12-20T03:02:39;14.85;;;6.50;;
44480;SDS011;30184;42.018;23.670;2023-12-20T03:05:08;11.38;;;5.97;;
44480;SDS011;30184;42.018;23.670;2023-12-20T03:07:37;13.27;;;7.80;;
44480;SDS011;30184;42.018;23.670;2023-12-20T03:10:08;14.25;;;6.60;;
44480;SDS011;30184;42.018;23.670;2023-12-20T03:12:39;90.25;;;31.95;;
44480;SDS011;30184;42.018;23.670;2023-12-20T03:15:08;41.15;;;18.40;;
44480;SDS011;30184;42.018;23.670;2023-12-20T03:17:38;44.20;;;19.70;;
44480;SDS011;30184;42.018;23.670;2023-12-20T03:20:08;16.83;;;9.40;;
44480;SDS011;30184;42.018;23.670;2023-12-20T03:22:37;20.05;;;8.43;;
44480;SDS011;30184;42.018;23.670;2023-12-20T03:25:06;17.67;;;9.55;;
44480;SDS011;30184;42.018;23.670;2023-12-20T03:27:36;25.45;;;11.10;;
44480;SDS011;30184;42.018;23.670;2023-12-20T03:30:07;19.58;;;10.68;;
44480;SDS011;30184;42.018;23.670;2023-12-20T03:32:37;22.50;;;9.75;;
44480;SDS011;30184;42.018;23.670;2023-12-20T03:35:07;22.42;;;6.95;;
44480;SDS011;30184;42.018;23.670;2023-12-20T03:37:36;11.52;;;6.07;;
44480;SDS011;30184;42.018;23.670;2023-12-20T03:40:06;15.23;;;6.32;;
44480;SDS011;30184;42.018;23.670;2023-12-20T03:42:35;21.38;;;8.40;;
44480;SDS011;30184;42.018;23.670;2023-12-20T03:45:06;18.05;;;8.48;;
44480;SDS011;30184;42.018;23.670;2023-12-20T03:47:36;14.85;;;5.63;;
44480;SDS011;30184;42.018;23.670;2023-12-20T03:50:06;18.83;;;9.43;;
44480;SDS011;30184;42.018;23.670;2023-12-20T03:52:35;23.35;;;8.80;;
44480;SDS011;30184;42.018;23.670;2023-12-20T03:55:05;23.17;;;8.68;;
44480;SDS011;30184;42.018;23.670;2023-12-20T03:57:34;15.23;;;5.97;;
44480;SDS011;30184;42.018;23.670;2023-12-20T04:00:04;18.20;;;7.75;;
44480;SDS011;30184;42.018;23.670;2023-12-20T04:02:40;20.63;;;6.38;;
44480;SDS011;30184;42.018;23.670;2023-12-20T04:05:10;16.02;;;8.07;;
44480;SDS011;30184;42.018;23.670;2023-12-20T04:07:39;27.58;;;10.52;;
44480;SDS011;30184;42.018;23.670;2023-12-20T04:10:08;38.92;;;15.35;;
44480;SDS011;30184;42.018;23.670;2023-12-20T04:12:38;35.95;;;14.00;;
44480;SDS011;30184;42.018;23.670;2023-12-20T04:15:09;32.10;;;12.38;;
44480;SDS011;30184;42.018;23.670;2023-12-20T04:17:39;36.92;;;13.45;;
44480;SDS011;30184;42.018;23.670;2023-12-20T04:20:08;26.83;;;12.85;;
44480;SDS011;30184;42.018;23.670;2023-12-20T04:22:38;31.67;;;12.27;;
44480;SDS011;30184;42.018;23.670;2023-12-20T04:25:07;24.70;;;7.47;;
44480;SDS011;30184;42.018;23.670;2023-12-20T04:27:37;69.72;;;28.45;;
44480;SDS011;30184;42.018;23.670;2023-12-20T04:30:07;74.93;;;32.05;;
44480;SDS011;30184;42.018;23.670;2023-12-20T04:32:38;70.63;;;29.58;;
44480;SDS011;30184;42.018;23.670;2023-12-20T04:35:07;61.58;;;23.50;;
44480;SDS011;30184;42.018;23.670;2023-12-20T04:37:37;67.22;;;26.08;;
44480;SDS011;30184;42.018;23.670;2023-12-20T04:40:06;46.00;;;17.50;;
44480;SDS011;30184;42.018;23.670;2023-12-20T04:42:36;34.42;;;17.40;;
44480;SDS011;30184;42.018;23.670;2023-12-20T04:45:06;27.60;;;13.48;;
44480;SDS011;30184;42.018;23.670;2023-12-20T04:47:37;26.02;;;11.38;;
44480;SDS011;30184;42.018;23.670;2023-12-20T04:50:06;15.80;;;9.85;;
44480;SDS011;30184;42.018;23.670;2023-12-20T04:52:37;20.42;;;9.57;;
44480;SDS011;30184;42.018;23.670;2023-12-20T04:55:06;23.17;;;11.52;;
44480;SDS011;30184;42.018;23.670;2023-12-20T04:57:36;20.13;;;9.60;;
44480;SDS011;30184;42.018;23.670;2023-12-20T05:00:05;34.42;;;13.07;;
44480;SDS011;30184;42.018;23.670;2023-12-20T05:02:37;31.17;;;14.20;;
44480;SDS011;30184;42.018;23.670;2023-12-20T05:05:06;110.45;;;38.17;;
44480;SDS011;30184;42.018;23.670;2023-12-20T05:07:36;85.30;;;34.90;;
44480;SDS011;30184;42.018;23.670;2023-12-20T05:10:06;64.60;;;28.10;;
44480;SDS011;30184;42.018;23.670;2023-12-20T05:12:36;43.40;;;20.13;;
44480;SDS011;30184;42.018;23.670;2023-12-20T05:15:06;36.05;;;20.63;;
44480;SDS011;30184;42.018;23.670;2023-12-20T05:17:37;35.33;;;17.23;;
44480;SDS011;30184;42.018;23.670;2023-12-20T05:20:07;33.50;;;14.48;;
44480;SDS011;30184;42.018;23.670;2023-12-20T05:22:36;33.22;;;15.55;;
44480;SDS011;30184;42.018;23.670;2023-12-20T05:25:06;24.63;;;12.93;;
44480;SDS011;30184;42.018;23.670;2023-12-20T05:27:35;38.25;;;20.10;;
44480;SDS011;30184;42.018;23.670;2023-12-20T05:30:05;41.22;;;21.63;;
44480;SDS011;30184;42.018;23.670;2023-12-20T05:32:34;61.35;;;24.67;;
44480;SDS011;30184;42.018;23.670;2023-12-20T05:35:05;83.03;;;34.65;;
44480;SDS011;30184;42.018;23.670;2023-12-20T05:37:34;54.88;;;25.30;;
44480;SDS011;30184;42.018;23.670;2023-12-20T05:40:04;75.95;;;29.85;;
44480;SDS011;30184;42.018;23.670;2023-12-20T05:42:37;63.08;;;32.03;;
44480;SDS011;30184;42.018;23.670;2023-12-20T05:45:06;46.35;;;23.77;;
44480;SDS011;30184;42.018;23.670;2023-12-20T05:47:38;61.85;;;25.55;;
44480;SDS011;30184;42.018;23.670;2023-12-20T05:50:07;48.75;;;24.92;;
44480;SDS011;30184;42.018;23.670;2023-12-20T05:52:36;69.28;;;30.83;;
44480;SDS011;30184;42.018;23.670;2023-12-20T05:55:05;84.60;;;39.72;;
44480;SDS011;30184;42.018;23.670;2023-12-20T05:57:34;72.00;;;31.02;;
44480;SDS011;30184;42.018;23.670;2023-12-20T06:00:04;65.90;;;30.17;;
44480;SDS011;30184;42.018;23.670;2023-12-20T06:02:39;42.72;;;24.38;;
44480;SDS011;30184;42.018;23.670;2023-12-20T06:05:08;167.88;;;65.55;;
44480;SDS011;30184;42.018;23.670;2023-12-20T06:07:38;144.85;;;52.40;;
44480;SDS011;30184;42.018;23.670;2023-12-20T06:10:07;129.25;;;54.97;;
44480;SDS011;30184;42.018;23.670;2023-12-20T06:12:37;109.43;;;48.40;;
44480;SDS011;30184;42.018;23.670;2023-12-20T06:15:06;111.05;;;45.08;;
44480;SDS011;30184;42.018;23.670;2023-12-20T06:17:35;105.03;;;43.92;;
44480;SDS011;30184;42.018;23.670;2023-12-20T06:20:07;101.22;;;46.92;;
44480;SDS011;30184;42.018;23.670;2023-12-20T06:22:36;89.72;;;44.65;;
44480;SDS011;30184;42.018;23.670;2023-12-20T06:25:06;101.55;;;51.20;;
44480;SDS011;30184;42.018;23.670;2023-12-20T06:27:35;129.63;;;56.90;;
44480;SDS011;30184;42.018;23.670;2023-12-20T06:30:05;134.48;;;59.92;;
44480;SDS011;30184;42.018;23.670;2023-12-20T06:32:36;151.15;;;58.58;;
44480;SDS011;30184;42.018;23.670;2023-12-20T06:35:08;115.80;;;55.65;;
44480;SDS011;30184;42.018;23.670;2023-12-20T06:37:38;108.40;;;44.22;;
44480;SDS011;30184;42.018;23.670;2023-12-20T06:40:10;73.43;;;38.03;;
44480;SDS011;30184;42.018;23.670;2023-12-20T06:42:42;98.32;;;49.75;;
44480;SDS011;30184;42.018;23.670;2023-12-20T06:45:12;134.35;;;51.05;;
44480;SDS011;30184;42.018;23.670;2023-12-20T06:47:42;137.73;;;59.97;;
44480;SDS011;30184;42.018;23.670;2023-12-20T06:50:12;128.07;;;59.20;;
44480;SDS011;30184;42.018;23.670;2023-12-20T06:52:42;140.30;;;67.28;;
44480;SDS011;30184;42.018;23.670;2023-12-20T06:55:11;150.05;;;67.30;;
44480;SDS011;30184;42.018;23.670;2023-12-20T06:57:40;146.40;;;60.85;;
44480;SDS011;30184;42.018;23.670;2023-12-20T07:00:10;146.40;;;64.25;;
44480;SDS011;30184;42.018;23.670;2023-12-20T07:02:40;154.98;;;70.38;;
44480;SDS011;30184;42.018;23.670;2023-12-20T07:05:09;161.73;;;71.80;;
44480;SDS011;30184;42.018;23.670;2023-12-20T07:07:40;145.15;;;65.82;;
44480;SDS011;30184;42.018;23.670;2023-12-20T07:10:09;174.93;;;77.32;;
44480;SDS011;30184;42.018;23.670;2023-12-20T07:12:38;215.57;;;92.63;;
44480;SDS011;30184;42.018;23.670;2023-12-20T07:15:08;506.55;;;189.65;;
44480;SDS011;30184;42.018;23.670;2023-12-20T07:17:37;191.63;;;84.00;;
44480;SDS011;30184;42.018;23.670;2023-12-20T07:20:07;238.68;;;96.82;;
44480;SDS011;30184;42.018;23.670;2023-12-20T07:22:39;231.93;;;103.38;;
44480;SDS011;30184;42.018;23.670;2023-12-20T07:25:09;183.05;;;83.40;;
44480;SDS011;30184;42.018;23.670;2023-12-20T07:27:38;160.95;;;75.13;;
44480;SDS011;30184;42.018;23.670;2023-12-20T07:30:09;190.65;;;76.43;;
44480;SDS011;30184;42.018;23.670;2023-12-20T07:32:39;162.75;;;68.43;;
44480;SDS011;30184;42.018;23.670;2023-12-20T07:35:08;110.78;;;53.35;;
44480;SDS011;30184;42.018;23.670;2023-12-20T07:37:37;126.90;;;56.70;;
44480;SDS011;30184;42.018;23.670;2023-12-20T07:40:08;101.50;;;48.53;;
44480;SDS011;30184;42.018;23.670;2023-12-20T07:42:38;70.70;;;34.20;;
44480;SDS011;30184;42.018;23.670;2023-12-20T07:45:07;87.97;;;39.80;;
44480;SDS011;30184;42.018;23.670;2023-12-20T07:47:38;62.42;;;31.02;;
44480;SDS011;30184;42.018;23.670;2023-12-20T07:50:08;66.60;;;33.55;;
44480;SDS011;30184;42.018;23.670;2023-12-20T07:52:37;59.85;;;29.42;;
44480;SDS011;30184;42.018;23.670;2023-12-20T07:55:08;69.63;;;33.20;;
44480;SDS011;30184;42.018;23.670;2023-12-20T07:57:37;63.85;;;29.52;;
44480;SDS011;30184;42.018;23.670;2023-12-20T08:00:07;75.65;;;35.58;;
44480;SDS011;30184;42.018;23.670;2023-12-20T08:02:37;96.25;;;39.90;;
44480;SDS011;30184;42.018;23.670;2023-12-20T08:05:07;157.07;;;55.88;;
44480;SDS011;30184;42.018;23.670;2023-12-20T08:07:36;97.85;;;48.03;;
44480;SDS011;30184;42.018;23.670;2023-12-20T08:10:06;404.38;;;143.00;;
44480;SDS011;30184;42.018;23.670;2023-12-20T08:12:37;290.65;;;103.55;;
44480;SDS011;30184;42.018;23.670;2023-12-20T08:15:07;204.20;;;81.65;;
44480;SDS011;30184;42.018;23.670;2023-12-20T08:17:36;226.63;;;91.93;;
44480;SDS011;30184;42.018;23.670;2023-12-20T08:20:06;176.18;;;80.40;;
44480;SDS011;30184;42.018;23.670;2023-12-20T08:22:36;223.73;;;93.65;;
44480;SDS011;30184;42.018;23.670;2023-12-20T08:25:05;156.98;;;72.03;;
44480;SDS011;30184;42.018;23.670;2023-12-20T08:27:38;143.77;;;65.50;;
44480;SDS011;30184;42.018;23.670;2023-12-20T08:30:08;166.68;;;70.45;;
44480;SDS011;30184;42.018;23.670;2023-12-20T08:32:38;159.50;;;74.18;;
44480;SDS011;30184;42.018;23.670;2023-12-20T08:35:07;151.55;;;73.32;;
44480;SDS011;30184;42.018;23.670;2023-12-20T08:37:37;177.88;;;72.18;;
44480;SDS011;30184;42.018;23.670;2023-12-20T08:40:06;182.82;;;72.20;;
44480;SDS011;30184;42.018;23.670;2023-12-20T08:42:37;133.98;;;60.50;;
44480;SDS011;30184;42.018;23.670;2023-12-20T08:45:07;136.63;;;61.47;;
44480;SDS011;30184;42.018;23.670;2023-12-20T08:47:36;157.98;;;67.57;;
44480;SDS011;30184;42.018;23.670;2023-12-20T08:50:06;143.48;;;64.88;;
44480;SDS011;30184;42.018;23.670;2023-12-20T08:52:36;142.10;;;66.45;;
44480;SDS011;30184;42.018;23.670;2023-12-20T08:55:05;144.60;;;68.13;;
44480;SDS011;30184;42.018;23.670;2023-12-20T08:57:35;154.45;;;72.20;;
44480;SDS011;30184;42.018;23.670;2023-12-20T09:00:06;105.10;;;50.72;;
44480;SDS011;30184;42.018;23.670;2023-12-20T09:02:36;129.02;;;51.83;;
44480;SDS011;30184;42.018;23.670;2023-12-20T09:05:05;107.93;;;49.03;;
44480;SDS011;30184;42.018;23.670;2023-12-20T09:07:35;112.85;;;51.72;;
44480;SDS011;30184;42.018;23.670;2023-12-20T09:10:04;101.60;;;43.30;;
44480;SDS011;30184;42.018;23.670;2023-12-20T09:12:33;101.20;;;40.58;;
44480;SDS011;30184;42.018;23.670;2023-12-20T09:15:06;118.32;;;44.53;;
44480;SDS011;30184;42.018;23.670;2023-12-20T09:17:36;65.10;;;31.15;;
44480;SDS011;30184;42.018;23.670;2023-12-20T09:20:05;47.80;;;23.27;;
44480;SDS011;30184;42.018;23.670;2023-12-20T09:22:35;47.25;;;24.38;;
44480;SDS011;30184;42.018;23.670;2023-12-20T09:25:05;51.70;;;23.40;;
44480;SDS011;30184;42.018;23.670;2023-12-20T09:27:35;38.60;;;19.92;;
44480;SDS011;30184;42.018;23.670;2023-12-20T09:30:04;59.95;;;31.00;;
44480;SDS011;30184;42.018;23.670;2023-12-20T09:32:36;44.10;;;22.92;;
44480;SDS011;30184;42.018;23.670;2023-12-20T09:35:05;41.08;;;21.45;;
44480;SDS011;30184;42.018;23.670;2023-12-20T09:37:36;39.83;;;20.75;;
44480;SDS011;30184;42.018;23.670;2023-12-20T09:40:05;40.50;;;19.35;;
44480;SDS011;30184;42.018;23.670;2023-12-20T09:42:38;29.75;;;15.55;;
44480;SDS011;30184;42.018;23.670;2023-12-20T09:45:17;30.05;;;15.02;;
44480;SDS011;30184;42.018;23.670;2023-12-20T09:47:49;27.35;;;16.70;;
44480;SDS011;30184;42.018;23.670;2023-12-20T09:50:21;231.00;;;78.05;;
44480;SDS011;30184;42.018;23.670;2023-12-20T09:52:51;392.45;;;131.95;;
44480;SDS011;30184;42.018;23.670;2023-12-20T09:55:23;161.70;;;59.38;;
44480;SDS011;30184;42.018;23.670;2023-12-20T09:57:56;164.73;;;70.25;;
44480;SDS011;30184;42.018;23.670;2023-12-20T10:00:26;89.10;;;40.45;;
44480;SDS011;30184;42.018;23.670;2023-12-20T10:02:56;49.33;;;24.23;;
44480;SDS011;30184;42.018;23.670;2023-12-20T10:05:27;55.00;;;22.65;;
44480;SDS011;30184;42.018;23.670;2023-12-20T10:07:57;51.88;;;23.55;;
44480;SDS011;30184;42.018;23.670;2023-12-20T10:10:27;40.20;;;18.52;;
44480;SDS011;30184;42.018;23.670;2023-12-20T10:13:00;32.00;;;14.43;;
44480;SDS011;30184;42.018;23.670;2023-12-20T10:15:33;62.70;;;29.20;;
44480;SDS011;30184;42.018;23.670;2023-12-20T10:18:04;70.53;;;29.02;;
44480;SDS011;30184;42.018;23.670;2023-12-20T10:20:34;78.25;;;36.60;;
44480;SDS011;30184;42.018;23.670;2023-12-20T10:23:04;64.15;;;30.55;;
44480;SDS011;30184;42.018;23.670;2023-12-20T10:25:33;84.38;;;32.92;;
44480;SDS011;30184;42.018;23.670;2023-12-20T10:28:09;66.72;;;30.35;;
44480;SDS011;30184;42.018;23.670;2023-12-20T10:30:41;58.45;;;24.33;;
44480;SDS011;30184;42.018;23.670;2023-12-20T10:33:10;46.03;;;21.15;;
44480;SDS011;30184;42.018;23.670;2023-12-20T10:35:40;40.10;;;20.23;;
44480;SDS011;30184;42.018;23.670;2023-12-20T10:38:09;35.67;;;16.60;;
44480;SDS011;30184;42.018;23.670;2023-12-20T10:40:40;40.38;;;19.80;;
44480;SDS011;30184;42.018;23.670;2023-12-20T10:43:10;65.38;;;24.73;;
44480;SDS011;30184;42.018;23.670;2023-12-20T10:45:42;65.32;;;28.23;;
44480;SDS011;30184;42.018;23.670;2023-12-20T10:48:11;75.65;;;31.35;;
44480;SDS011;30184;42.018;23.670;2023-12-20T10:50:41;48.53;;;19.83;;
44480;SDS011;30184;42.018;23.670;2023-12-20T10:53:12;46.63;;;20.88;;
44480;SDS011;30184;42.018;23.670;2023-12-20T10:55:42;61.17;;;21.42;;
44480;SDS011;30184;42.018;23.670;2023-12-20T10:58:13;58.80;;;24.77;;
44480;SDS011;30184;42.018;23.670;2023-12-20T11:00:44;69.13;;;29.27;;
44480;SDS011;30184;42.018;23.670;2023-12-20T11:03:16;69.68;;;30.23;;
44480;SDS011;30184;42.018;23.670;2023-12-20T11:05:49;81.90;;;32.17;;
44480;SDS011;30184;42.018;23.670;2023-12-20T11:08:25;65.45;;;29.20;;
44480;SDS011;30184;42.018;23.670;2023-12-20T11:11:02;50.05;;;20.70;;
44480;SDS011;30184;42.018;23.670;2023-12-20T11:13:37;51.72;;;19.40;;
44480;SDS011;30184;42.018;23.670;2023-12-20T11:16:14;52.15;;;21.25;;
44480;SDS011;30184;42.018;23.670;2023-12-20T11:18:44;83.80;;;33.83;;
44480;SDS011;30184;42.018;23.670;2023-12-20T11:21:14;37.50;;;15.80;;
44480;SDS011;30184;42.018;23.670;2023-12-20T11:23:45;40.88;;;18.13;;
44480;SDS011;30184;42.018;23.670;2023-12-20T11:26:15;64.13;;;27.38;;
44480;SDS011;30184;42.018;23.670;2023-12-20T11:28:45;35.35;;;16.75;;
44480;SDS011;30184;42.018;23.670;2023-12-20T11:31:15;43.63;;;19.67;;
44480;SDS011;30184;42.018;23.670;2023-12-20T11:33:45;71.50;;;30.73;;
44480;SDS011;30184;42.018;23.670;2023-12-20T11:36:18;75.15;;;35.25;;
44480;SDS011;30184;42.018;23.670;2023-12-20T11:38:53;77.55;;;29.85;;
44480;SDS011;30184;42.018;23.670;2023-12-20T11:41:24;100.57;;;37.08;;
44480;SDS011;30184;42.018;23.670;2023-12-20T11:43:54;92.53;;;35.05;;
44480;SDS011;30184;42.018;23.670;2023-12-20T11:46:25;89.30;;;35.97;;
44480;SDS011;30184;42.018;23.670;2023-12-20T11:48:55;101.63;;;43.20;;
44480;SDS011;30184;42.018;23.670;2023-12-20T11:51:24;92.30;;;35.22;;
44480;SDS011;30184;42.018;23.670;2023-12-20T11:53:55;79.28;;;31.35;;
44480;SDS011;30184;42.018;23.670;2023-12-20T11:56:24;84.53;;;33.42;;
44480;SDS011;30184;42.018;23.670;2023-12-20T11:58:53;84.20;;;35.22;;
44480;SDS011;30184;42.018;23.670;2023-12-20T12:01:28;77.72;;;33.47;;
44480;SDS011;30184;42.018;23.670;2023-12-20T12:04:04;60.35;;;26.13;;
44480;SDS011;30184;42.018;23.670;2023-12-20T12:06:33;61.80;;;27.13;;
44480;SDS011;30184;42.018;23.670;2023-12-20T12:09:03;114.22;;;43.63;;
44480;SDS011;30184;42.018;23.670;2023-12-20T12:11:33;134.48;;;54.88;;
44480;SDS011;30184;42.018;23.670;2023-12-20T12:14:02;114.97;;;51.50;;
44480;SDS011;30184;42.018;23.670;2023-12-20T12:16:33;95.40;;;42.70;;
44480;SDS011;30184;42.018;23.670;2023-12-20T12:19:02;112.20;;;47.10;;
44480;SDS011;30184;42.018;23.670;2023-12-20T12:21:32;110.43;;;51.92;;
44480;SDS011;30184;42.018;23.670;2023-12-20T12:24:08;112.70;;;48.65;;
44480;SDS011;30184;42.018;23.670;2023-12-20T12:26:38;162.73;;;60.72;;
44480;SDS011;30184;42.018;23.670;2023-12-20T12:29:07;140.25;;;54.47;;
44480;SDS011;30184;42.018;23.670;2023-12-20T12:31:38;99.53;;;42.45;;
44480;SDS011;30184;42.018;23.670;2023-12-20T12:34:07;95.50;;;41.90;;
44480;SDS011;30184;42.018;23.670;2023-12-20T12:36:37;120.63;;;53.83;;
44480;SDS011;30184;42.018;23.670;2023-12-20T12:39:07;118.20;;;52.03;;
44480;SDS011;30184;42.018;23.670;2023-12-20T12:41:37;93.05;;;44.42;;
44480;SDS011;30184;42.018;23.670;2023-12-20T12:44:06;99.50;;;43.85;;
44480;SDS011;30184;42.018;23.670;2023-12-20T12:46:39;84.15;;;35.40;;
44480;SDS011;30184;42.018;23.670;2023-12-20T12:49:08;146.75;;;58.75;;
44480;SDS011;30184;42.018;23.670;2023-12-20T12:51:37;106.38;;;41.72;;
44480;SDS011;30184;42.018;23.670;2023-12-20T12:54:07;158.23;;;54.72;;
44480;SDS011;30184;42.018;23.670;2023-12-20T12:56:37;184.57;;;77.53;;
44480;SDS011;30184;42.018;23.670;2023-12-20T12:59:06;124.07;;;52.50;;
44480;SDS011;30184;42.018;23.670;2023-12-20T13:01:35;130.07;;;50.50;;
44480;SDS011;30184;42.018;23.670;2023-12-20T13:04:06;142.95;;;58.40;;
44480;SDS011;30184;42.018;23.670;2023-12-20T13:06:38;164.38;;;59.25;;
44480;SDS011;30184;42.018;23.670;2023-12-20T13:09:08;141.55;;;53.70;;
44480;SDS011;30184;42.018;23.670;2023-12-20T13:11:38;153.13;;;61.40;;
44480;SDS011;30184;42.018;23.670;2023-12-20T13:14:07;119.82;;;49.97;;
44480;SDS011;30184;42.018;23.670;2023-12-20T13:16:38;114.55;;;54.50;;
44480;SDS011;30184;42.018;23.670;2023-12-20T13:19:08;88.15;;;45.60;;
44480;SDS011;30184;42.018;23.670;2023-12-20T13:21:38;72.60;;;34.20;;
44480;SDS011;30184;42.018;23.670;2023-12-20T13:24:08;56.25;;;26.17;;
44480;SDS011;30184;42.018;23.670;2023-12-20T13:26:37;69.38;;;34.22;;
44480;SDS011;30184;42.018;23.670;2023-12-20T13:29:06;70.95;;;32.38;;
44480;SDS011;30184;42.018;23.670;2023-12-20T13:31:35;82.28;;;35.58;;
44480;SDS011;30184;42.018;23.670;2023-12-20T13:34:05;80.53;;;34.85;;
44480;SDS011;30184;42.018;23.670;2023-12-20T13:36:36;70.57;;;32.55;;
44480;SDS011;30184;42.018;23.670;2023-12-20T13:39:05;96.18;;;38.42;;
44480;SDS011;30184;42.018;23.670;2023-12-20T13:41:35;101.40;;;38.78;;
44480;SDS011;30184;42.018;23.670;2023-12-20T13:44:04;143.32;;;45.97;;
44480;SDS011;30184;42.018;23.670;2023-12-20T13:46:33;107.47;;;42.33;;
44480;SDS011;30184;42.018;23.670;2023-12-20T13:49:02;119.15;;;44.42;;
44480;SDS011;30184;42.018;23.670;2023-12-20T13:51:32;103.55;;;41.80;;
44480;SDS011;30184;42.018;23.670;2023-12-20T13:54:02;132.60;;;51.67;;
44480;SDS011;30184;42.018;23.670;2023-12-20T13:56:32;92.57;;;39.83;;
44480;SDS011;30184;42.018;23.670;2023-12-20T13:59:04;83.72;;;36.63;;
44480;SDS011;30184;42.018;23.670;2023-12-20T14:01:33;139.55;;;53.97;;
44480;SDS011;30184;42.018;23.670;2023-12-20T14:04:03;101.00;;;42.47;;
44480;SDS011;30184;42.018;23.670;2023-12-20T14:06:32;87.13;;;38.45;;
44480;SDS011;30184;42.018;23.670;2023-12-20T14:09:03;69.00;;;29.77;;
44480;SDS011;30184;42.018;23.670;2023-12-20T14:11:33;97.35;;;37.58;;
44480;SDS011;30184;42.018;23.670;2023-12-20T14:14:07;79.03;;;35.72;;
44480;SDS011;30184;42.018;23.670;2023-12-20T14:16:36;79.22;;;34.75;;
44480;SDS011;30184;42.018;23.670;2023-12-20T14:19:05;107.95;;;41.70;;
44480;SDS011;30184;42.018;23.670;2023-12-20T14:21:35;145.10;;;55.97;;